Дата Пункты Температура Давл., мм. Влажн., % Ветер Погодные явления
Воздуха Воды Направл. Скорость
24.09.17 06:00 Одесса 20.0 21.0 762 63 Ю 5 18 часов
24.09.17 03:00 Одесса 21.0 21.0 761 64 Ю-В 4 15 часов
24.09.17 12:00 Одесса 19.0 20.0 761 81 В 4 12 часов
24.09.17 09:00 Одесса 16.0 20.0 761 94 С-В 2 09 часов
24.09.17 06:00 Одесса 15.0 20.0 760 97 С-З 1 06 часов
24.09.17 03:00 Одесса 15.0 20.0 760 96 С-З 1 03 часа
23.09.17 09:00 Одесса 15.0 20.0 760 94 С-З 1 21 час
23.09.17 06:00 Одесса 16.0 21.0 760 89 В 5 18 часов
23.09.17 03:00 Одесса 20.0 21.0 759 68 Ю 3 15 часов
23.09.17 12:00 Одесса 20.0 20.0 759 63 Ю-В 2 12 часов
23.09.17 09:00 Одесса 17.0 20.0 758 97 С 0 09 часов
23.09.17 06:00 Одесса 13.0 21.0 758 96 С 0 06 часов
23.09.17 03:00 Одесса 13.0 21.0 757 95 З 1 03 часа
22.09.17 09:00 Одесса 14.0 21.0 756 93 З 2 21 час
22.09.17 06:00 Одесса 16.0 21.0 755 86 Ю-З 1 18 часов
22.09.17 03:00 Одесса 16.0 21.0 754 94 З 1 15 часов
22.09.17 12:00 Одесса 17.0 21.0 753 95 З 2 12 часов
22.09.17 09:00 Одесса 15.0 21.0 753 95 С-З 2 09 часов
22.09.17 06:00 Одесса 15.0 21.0 754 92 З 3 06 часов
22.09.17 03:00 Одесса 18.0 21.0 754 71 З 3 03 часа
Количество строк
1 2 3 4 5 6 7 8 9 10
Page 9 of 284